Swift Current, Canada
Current Conditions -  °F | °C
As of 12:00 PM on Saturday 25 Oct 2014 (Local Time) from CYYN Reporting Station
Scattered Clouds Scattered Clouds  
Wind Chill: 52°   Ceiling: Unl
Heat Index: 52°   Visibility: 9mi
Dew Point: 27°   Wind: 8mph
Humidity: 38%   Direction: 140°SE
Pressure: 29.99"   Gusts: NA
Location:  50.29°N, 107.8°W
Report Text: CYYN 251800Z AUTO 14007KT 9SM FEW180 SCT240 11/M03 A2999 RMK PRESFR SLP174 DENSITY ALT 2700FT
Loading
Personal Weather Stations






























Interactive Weather Map
Tropical Storm Tracking
New forecast layout! Learn more

10-Day Weather Forecast

Advertisements
Track Severe Weather on mobile